sensor_id;sensor_type;location;lat;lon;timestamp;temperature;humidity
36002;DHT22;22070;50.922;5.430;2024-01-30T00:01:42;8.10;99.90
36002;DHT22;22070;50.922;5.430;2024-01-30T00:04:08;8.10;99.90
36002;DHT22;22070;50.922;5.430;2024-01-30T00:06:33;8.00;99.90
36002;DHT22;22070;50.922;5.430;2024-01-30T00:08:59;8.00;99.90
36002;DHT22;22070;50.922;5.430;2024-01-30T00:11:25;8.00;99.90
36002;DHT22;22070;50.922;5.430;2024-01-30T00:13:54;8.00;99.90
36002;DHT22;22070;50.922;5.430;2024-01-30T00:16:25;8.00;99.90
36002;DHT22;22070;50.922;5.430;2024-01-30T00:18:54;7.90;99.90
36002;DHT22;22070;50.922;5.430;2024-01-30T00:21:20;7.90;99.90
36002;DHT22;22070;50.922;5.430;2024-01-30T00:23:46;7.80;99.90
36002;DHT22;22070;50.922;5.430;2024-01-30T00:26:12;7.90;99.90
36002;DHT22;22070;50.922;5.430;2024-01-30T00:28:38;7.80;99.90
36002;DHT22;22070;50.922;5.430;2024-01-30T00:31:04;7.80;99.90
36002;DHT22;22070;50.922;5.430;2024-01-30T00:33:30;7.90;99.90
36002;DHT22;22070;50.922;5.430;2024-01-30T00:35:56;7.80;99.90
36002;DHT22;22070;50.922;5.430;2024-01-30T00:38:22;7.80;99.90
36002;DHT22;22070;50.922;5.430;2024-01-30T00:40:48;7.80;99.90
36002;DHT22;22070;50.922;5.430;2024-01-30T00:43:14;7.80;99.90
36002;DHT22;22070;50.922;5.430;2024-01-30T00:45:41;7.80;99.90
36002;DHT22;22070;50.922;5.430;2024-01-30T00:48:07;7.80;99.90
36002;DHT22;22070;50.922;5.430;2024-01-30T00:50:32;7.90;99.90
36002;DHT22;22070;50.922;5.430;2024-01-30T00:52:58;7.90;99.90
36002;DHT22;22070;50.922;5.430;2024-01-30T00:55:24;7.90;99.90
36002;DHT22;22070;50.922;5.430;2024-01-30T00:57:49;7.80;99.90
36002;DHT22;22070;50.922;5.430;2024-01-30T01:00:15;7.70;99.90
36002;DHT22;22070;50.922;5.430;2024-01-30T01:02:43;7.80;99.90
36002;DHT22;22070;50.922;5.430;2024-01-30T01:05:09;7.80;99.90
36002;DHT22;22070;50.922;5.430;2024-01-30T01:07:34;7.80;99.90
36002;DHT22;22070;50.922;5.430;2024-01-30T01:10:00;7.70;99.90
36002;DHT22;22070;50.922;5.430;2024-01-30T01:12:26;7.60;99.90
36002;DHT22;22070;50.922;5.430;2024-01-30T01:14:52;7.60;99.90
36002;DHT22;22070;50.922;5.430;2024-01-30T01:17:18;7.60;99.90
36002;DHT22;22070;50.922;5.430;2024-01-30T01:19:46;7.60;99.90
36002;DHT22;22070;50.922;5.430;2024-01-30T01:22:12;7.60;99.90
36002;DHT22;22070;50.922;5.430;2024-01-30T01:24:38;7.60;99.90
36002;DHT22;22070;50.922;5.430;2024-01-30T01:27:05;7.60;99.90
36002;DHT22;22070;50.922;5.430;2024-01-30T01:29:31;7.60;99.90
36002;DHT22;22070;50.922;5.430;2024-01-30T01:31:57;7.60;99.90
36002;DHT22;22070;50.922;5.430;2024-01-30T01:34:24;7.60;99.90
36002;DHT22;22070;50.922;5.430;2024-01-30T01:36:50;7.60;99.90
36002;DHT22;22070;50.922;5.430;2024-01-30T01:39:16;7.60;99.90
36002;DHT22;22070;50.922;5.430;2024-01-30T01:41:42;7.60;99.90
36002;DHT22;22070;50.922;5.430;2024-01-30T01:44:08;7.60;99.90
36002;DHT22;22070;50.922;5.430;2024-01-30T01:46:35;7.60;99.90
36002;DHT22;22070;50.922;5.430;2024-01-30T01:49:02;7.70;99.90
36002;DHT22;22070;50.922;5.430;2024-01-30T01:51:29;7.80;99.90
36002;DHT22;22070;50.922;5.430;2024-01-30T01:53:57;7.70;99.90
36002;DHT22;22070;50.922;5.430;2024-01-30T01:56:24;7.70;99.90
36002;DHT22;22070;50.922;5.430;2024-01-30T01:58:51;7.70;99.90
36002;DHT22;22070;50.922;5.430;2024-01-30T02:01:20;7.80;99.90
36002;DHT22;22070;50.922;5.430;2024-01-30T02:03:46;7.80;99.90
36002;DHT22;22070;50.922;5.430;2024-01-30T02:06:15;7.90;99.90
36002;DHT22;22070;50.922;5.430;2024-01-30T02:08:42;8.00;99.90
36002;DHT22;22070;50.922;5.430;2024-01-30T02:11:08;8.10;99.90
36002;DHT22;22070;50.922;5.430;2024-01-30T02:13:34;8.20;99.90
36002;DHT22;22070;50.922;5.430;2024-01-30T02:16:00;8.20;99.90
36002;DHT22;22070;50.922;5.430;2024-01-30T02:18:26;8.30;99.90
36002;DHT22;22070;50.922;5.430;2024-01-30T02:20:53;8.30;99.90
36002;DHT22;22070;50.922;5.430;2024-01-30T02:23:20;8.40;99.90
36002;DHT22;22070;50.922;5.430;2024-01-30T02:25:46;8.30;99.90
36002;DHT22;22070;50.922;5.430;2024-01-30T02:28:12;8.30;99.90
36002;DHT22;22070;50.922;5.430;2024-01-30T02:30:39;8.30;99.90
36002;DHT22;22070;50.922;5.430;2024-01-30T02:33:05;8.40;99.90
36002;DHT22;22070;50.922;5.430;2024-01-30T02:35:31;8.50;99.90
36002;DHT22;22070;50.922;5.430;2024-01-30T02:37:56;8.60;99.90
36002;DHT22;22070;50.922;5.430;2024-01-30T02:40:22;8.70;99.90
36002;DHT22;22070;50.922;5.430;2024-01-30T02:42:48;8.70;99.90
36002;DHT22;22070;50.922;5.430;2024-01-30T02:45:13;8.70;99.90
36002;DHT22;22070;50.922;5.430;2024-01-30T02:47:40;8.80;99.90
36002;DHT22;22070;50.922;5.430;2024-01-30T02:50:06;8.80;99.90
36002;DHT22;22070;50.922;5.430;2024-01-30T02:52:32;8.80;99.90
36002;DHT22;22070;50.922;5.430;2024-01-30T02:54:57;8.80;99.90
36002;DHT22;22070;50.922;5.430;2024-01-30T02:57:23;8.80;99.90
36002;DHT22;22070;50.922;5.430;2024-01-30T02:59:49;8.80;99.90
36002;DHT22;22070;50.922;5.430;2024-01-30T03:02:14;8.80;99.90
36002;DHT22;22070;50.922;5.430;2024-01-30T03:04:43;8.80;99.90
36002;DHT22;22070;50.922;5.430;2024-01-30T03:07:09;8.90;99.90
36002;DHT22;22070;50.922;5.430;2024-01-30T03:09:36;8.90;99.90
36002;DHT22;22070;50.922;5.430;2024-01-30T03:12:02;9.00;99.90
36002;DHT22;22070;50.922;5.430;2024-01-30T03:14:29;8.90;99.90
36002;DHT22;22070;50.922;5.430;2024-01-30T03:16:55;9.00;99.90
36002;DHT22;22070;50.922;5.430;2024-01-30T03:19:20;9.00;99.90
36002;DHT22;22070;50.922;5.430;2024-01-30T03:21:46;9.00;99.90
36002;DHT22;22070;50.922;5.430;2024-01-30T03:24:11;9.00;99.90
36002;DHT22;22070;50.922;5.430;2024-01-30T03:26:37;9.00;99.90
36002;DHT22;22070;50.922;5.430;2024-01-30T03:29:03;9.00;99.90
36002;DHT22;22070;50.922;5.430;2024-01-30T03:31:28;9.00;99.90
36002;DHT22;22070;50.922;5.430;2024-01-30T03:33:54;9.10;99.90
36002;DHT22;22070;50.922;5.430;2024-01-30T03:36:20;9.00;99.90
36002;DHT22;22070;50.922;5.430;2024-01-30T03:38:45;8.90;99.90
36002;DHT22;22070;50.922;5.430;2024-01-30T03:41:11;8.90;99.90
36002;DHT22;22070;50.922;5.430;2024-01-30T03:43:37;8.90;99.90
36002;DHT22;22070;50.922;5.430;2024-01-30T03:46:03;8.80;99.90
36002;DHT22;22070;50.922;5.430;2024-01-30T03:48:29;8.90;99.90
36002;DHT22;22070;50.922;5.430;2024-01-30T03:50:55;8.90;99.90
36002;DHT22;22070;50.922;5.430;2024-01-30T03:53:21;8.90;99.90
36002;DHT22;22070;50.922;5.430;2024-01-30T03:55:47;9.00;99.90
36002;DHT22;22070;50.922;5.430;2024-01-30T03:58:13;9.00;99.90
36002;DHT22;22070;50.922;5.430;2024-01-30T04:00:39;9.00;99.90
36002;DHT22;22070;50.922;5.430;2024-01-30T04:03:04;9.00;99.90
36002;DHT22;22070;50.922;5.430;2024-01-30T04:05:30;9.00;99.90
36002;DHT22;22070;50.922;5.430;2024-01-30T04:07:56;9.00;99.90
36002;DHT22;22070;50.922;5.430;2024-01-30T04:10:21;9.10;99.90
36002;DHT22;22070;50.922;5.430;2024-01-30T04:12:47;9.10;99.90
36002;DHT22;22070;50.922;5.430;2024-01-30T04:15:13;9.00;99.90
36002;DHT22;22070;50.922;5.430;2024-01-30T04:17:39;9.10;99.90
36002;DHT22;22070;50.922;5.430;2024-01-30T04:20:06;9.00;99.90
36002;DHT22;22070;50.922;5.430;2024-01-30T04:22:31;9.10;99.90
36002;DHT22;22070;50.922;5.430;2024-01-30T04:24:57;9.10;99.90
36002;DHT22;22070;50.922;5.430;2024-01-30T04:27:23;9.10;99.90
36002;DHT22;22070;50.922;5.430;2024-01-30T04:29:48;9.10;99.90
36002;DHT22;22070;50.922;5.430;2024-01-30T04:32:14;9.10;99.90
36002;DHT22;22070;50.922;5.430;2024-01-30T04:34:40;9.00;99.90
36002;DHT22;22070;50.922;5.430;2024-01-30T04:37:05;8.90;99.90
36002;DHT22;22070;50.922;5.430;2024-01-30T04:39:33;8.90;99.90
36002;DHT22;22070;50.922;5.430;2024-01-30T04:41:58;9.00;99.90
36002;DHT22;22070;50.922;5.430;2024-01-30T04:44:24;9.00;99.90
36002;DHT22;22070;50.922;5.430;2024-01-30T04:46:50;9.10;99.90
36002;DHT22;22070;50.922;5.430;2024-01-30T04:49:16;9.00;99.90
36002;DHT22;22070;50.922;5.430;2024-01-30T04:51:41;9.20;99.90
36002;DHT22;22070;50.922;5.430;2024-01-30T04:54:07;9.10;99.90
36002;DHT22;22070;50.922;5.430;2024-01-30T04:56:33;9.10;99.90
36002;DHT22;22070;50.922;5.430;2024-01-30T04:58:59;9.10;99.90
36002;DHT22;22070;50.922;5.430;2024-01-30T05:01:25;9.00;99.90
36002;DHT22;22070;50.922;5.430;2024-01-30T05:03:51;9.00;99.90
36002;DHT22;22070;50.922;5.430;2024-01-30T05:06:26;9.00;99.90
36002;DHT22;22070;50.922;5.430;2024-01-30T05:08:52;8.90;99.90
36002;DHT22;22070;50.922;5.430;2024-01-30T05:11:18;9.00;99.90
36002;DHT22;22070;50.922;5.430;2024-01-30T05:13:44;9.10;99.90
36002;DHT22;22070;50.922;5.430;2024-01-30T05:16:09;9.10;99.90
36002;DHT22;22070;50.922;5.430;2024-01-30T05:18:35;9.10;99.90
36002;DHT22;22070;50.922;5.430;2024-01-30T05:21:02;9.20;99.90
36002;DHT22;22070;50.922;5.430;2024-01-30T05:23:28;9.10;99.90
36002;DHT22;22070;50.922;5.430;2024-01-30T05:25:53;9.20;99.90
36002;DHT22;22070;50.922;5.430;2024-01-30T05:28:19;9.30;99.90
36002;DHT22;22070;50.922;5.430;2024-01-30T05:30:44;9.30;99.90
36002;DHT22;22070;50.922;5.430;2024-01-30T05:33:10;9.40;99.90
36002;DHT22;22070;50.922;5.430;2024-01-30T05:35:37;9.40;99.90
36002;DHT22;22070;50.922;5.430;2024-01-30T05:38:03;9.40;99.90
36002;DHT22;22070;50.922;5.430;2024-01-30T05:40:30;9.50;99.90
36002;DHT22;22070;50.922;5.430;2024-01-30T05:42:56;9.60;99.90
36002;DHT22;22070;50.922;5.430;2024-01-30T05:45:21;9.60;99.90
36002;DHT22;22070;50.922;5.430;2024-01-30T05:47:48;9.50;99.90
36002;DHT22;22070;50.922;5.430;2024-01-30T05:50:14;9.60;99.90
36002;DHT22;22070;50.922;5.430;2024-01-30T05:52:40;9.70;99.90
36002;DHT22;22070;50.922;5.430;2024-01-30T05:55:06;9.60;99.90
36002;DHT22;22070;50.922;5.430;2024-01-30T05:57:32;9.60;99.90
36002;DHT22;22070;50.922;5.430;2024-01-30T05:59:58;9.60;99.90
36002;DHT22;22070;50.922;5.430;2024-01-30T06:02:23;9.50;99.90
36002;DHT22;22070;50.922;5.430;2024-01-30T06:04:49;9.60;99.90
36002;DHT22;22070;50.922;5.430;2024-01-30T06:07:14;9.70;99.90
36002;DHT22;22070;50.922;5.430;2024-01-30T06:09:40;9.60;99.90
36002;DHT22;22070;50.922;5.430;2024-01-30T06:12:06;9.70;99.90
36002;DHT22;22070;50.922;5.430;2024-01-30T06:14:32;9.80;99.90
36002;DHT22;22070;50.922;5.430;2024-01-30T06:16:59;9.70;99.90
36002;DHT22;22070;50.922;5.430;2024-01-30T06:19:24;9.80;99.90
36002;DHT22;22070;50.922;5.430;2024-01-30T06:21:50;9.90;99.90
36002;DHT22;22070;50.922;5.430;2024-01-30T06:24:16;10.00;99.90
36002;DHT22;22070;50.922;5.430;2024-01-30T06:26:42;10.10;99.90
36002;DHT22;22070;50.922;5.430;2024-01-30T06:29:08;10.00;99.90
36002;DHT22;22070;50.922;5.430;2024-01-30T06:31:40;10.10;99.90
36002;DHT22;22070;50.922;5.430;2024-01-30T06:34:06;10.00;99.90
36002;DHT22;22070;50.922;5.430;2024-01-30T06:36:31;10.10;99.90
36002;DHT22;22070;50.922;5.430;2024-01-30T06:38:57;10.10;99.90
36002;DHT22;22070;50.922;5.430;2024-01-30T06:41:22;10.20;99.90
36002;DHT22;22070;50.922;5.430;2024-01-30T06:43:49;10.20;99.90
36002;DHT22;22070;50.922;5.430;2024-01-30T06:46:15;10.20;99.90
36002;DHT22;22070;50.922;5.430;2024-01-30T06:48:41;10.20;99.90
36002;DHT22;22070;50.922;5.430;2024-01-30T06:51:09;10.20;99.90
36002;DHT22;22070;50.922;5.430;2024-01-30T06:53:34;10.20;99.90
36002;DHT22;22070;50.922;5.430;2024-01-30T06:56:00;10.30;99.90
36002;DHT22;22070;50.922;5.430;2024-01-30T06:58:26;10.40;99.90
36002;DHT22;22070;50.922;5.430;2024-01-30T07:00:52;10.40;99.90
36002;DHT22;22070;50.922;5.430;2024-01-30T07:03:17;10.30;99.90
36002;DHT22;22070;50.922;5.430;2024-01-30T07:05:43;10.20;99.90
36002;DHT22;22070;50.922;5.430;2024-01-30T07:08:08;10.20;99.90
36002;DHT22;22070;50.922;5.430;2024-01-30T07:10:34;10.20;99.90
36002;DHT22;22070;50.922;5.430;2024-01-30T07:13:03;10.10;99.90
36002;DHT22;22070;50.922;5.430;2024-01-30T07:15:30;10.00;99.90
36002;DHT22;22070;50.922;5.430;2024-01-30T07:17:56;10.10;99.90
36002;DHT22;22070;50.922;5.430;2024-01-30T07:20:21;10.00;99.90
36002;DHT22;22070;50.922;5.430;2024-01-30T07:22:47;10.00;99.90
36002;DHT22;22070;50.922;5.430;2024-01-30T07:25:13;9.90;99.90
36002;DHT22;22070;50.922;5.430;2024-01-30T07:27:39;9.90;99.90
36002;DHT22;22070;50.922;5.430;2024-01-30T07:30:05;9.90;99.90
36002;DHT22;22070;50.922;5.430;2024-01-30T07:32:31;9.90;99.90
36002;DHT22;22070;50.922;5.430;2024-01-30T07:34:57;10.00;99.90
36002;DHT22;22070;50.922;5.430;2024-01-30T07:37:23;10.00;99.90
36002;DHT22;22070;50.922;5.430;2024-01-30T07:39:48;10.00;99.90
36002;DHT22;22070;50.922;5.430;2024-01-30T07:42:14;9.90;99.90
36002;DHT22;22070;50.922;5.430;2024-01-30T07:44:39;9.90;99.90
36002;DHT22;22070;50.922;5.430;2024-01-30T07:47:05;9.90;99.90
36002;DHT22;22070;50.922;5.430;2024-01-30T07:49:34;10.00;99.90
36002;DHT22;22070;50.922;5.430;2024-01-30T07:52:00;10.00;99.90
36002;DHT22;22070;50.922;5.430;2024-01-30T07:54:25;10.00;99.90
36002;DHT22;22070;50.922;5.430;2024-01-30T07:56:51;10.00;99.90
36002;DHT22;22070;50.922;5.430;2024-01-30T07:59:17;10.10;99.90
36002;DHT22;22070;50.922;5.430;2024-01-30T08:01:45;10.10;99.90
36002;DHT22;22070;50.922;5.430;2024-01-30T08:04:10;10.20;99.90
36002;DHT22;22070;50.922;5.430;2024-01-30T08:06:36;10.20;99.90
36002;DHT22;22070;50.922;5.430;2024-01-30T08:09:02;10.20;99.90
36002;DHT22;22070;50.922;5.430;2024-01-30T08:11:27;10.30;99.90
36002;DHT22;22070;50.922;5.430;2024-01-30T08:13:55;10.40;99.90
36002;DHT22;22070;50.922;5.430;2024-01-30T08:16:21;10.40;99.90
36002;DHT22;22070;50.922;5.430;2024-01-30T08:18:46;10.40;99.90
36002;DHT22;22070;50.922;5.430;2024-01-30T08:21:12;10.40;99.90
36002;DHT22;22070;50.922;5.430;2024-01-30T08:23:39;10.40;99.90
36002;DHT22;22070;50.922;5.430;2024-01-30T08:26:05;10.40;99.90
36002;DHT22;22070;50.922;5.430;2024-01-30T08:28:31;10.40;99.90
36002;DHT22;22070;50.922;5.430;2024-01-30T08:30:57;10.40;99.90
36002;DHT22;22070;50.922;5.430;2024-01-30T08:33:22;10.40;99.90
36002;DHT22;22070;50.922;5.430;2024-01-30T08:35:48;10.40;99.90
36002;DHT22;22070;50.922;5.430;2024-01-30T08:38:14;10.50;99.90
36002;DHT22;22070;50.922;5.430;2024-01-30T08:40:39;10.70;99.90
36002;DHT22;22070;50.922;5.430;2024-01-30T08:43:05;10.70;99.90
36002;DHT22;22070;50.922;5.430;2024-01-30T08:45:31;10.80;99.90
36002;DHT22;22070;50.922;5.430;2024-01-30T08:47:56;10.70;99.90
36002;DHT22;22070;50.922;5.430;2024-01-30T08:50:22;10.80;99.90
36002;DHT22;22070;50.922;5.430;2024-01-30T08:52:48;10.80;99.90
36002;DHT22;22070;50.922;5.430;2024-01-30T08:55:13;10.80;99.90
36002;DHT22;22070;50.922;5.430;2024-01-30T08:57:39;10.90;99.90
36002;DHT22;22070;50.922;5.430;2024-01-30T09:00:05;10.90;99.90
36002;DHT22;22070;50.922;5.430;2024-01-30T09:02:34;10.90;99.90
36002;DHT22;22070;50.922;5.430;2024-01-30T09:05:00;11.00;99.90
36002;DHT22;22070;50.922;5.430;2024-01-30T09:07:26;11.10;99.90
36002;DHT22;22070;50.922;5.430;2024-01-30T09:09:51;11.10;99.90
36002;DHT22;22070;50.922;5.430;2024-01-30T09:12:17;11.10;99.90
36002;DHT22;22070;50.922;5.430;2024-01-30T09:14:43;11.20;99.90
36002;DHT22;22070;50.922;5.430;2024-01-30T09:17:09;11.20;99.90
36002;DHT22;22070;50.922;5.430;2024-01-30T09:19:34;11.20;99.90
36002;DHT22;22070;50.922;5.430;2024-01-30T09:22:00;11.20;99.90
36002;DHT22;22070;50.922;5.430;2024-01-30T09:24:26;11.20;99.90
36002;DHT22;22070;50.922;5.430;2024-01-30T09:26:52;11.30;99.90
36002;DHT22;22070;50.922;5.430;2024-01-30T09:29:18;11.40;99.90
36002;DHT22;22070;50.922;5.430;2024-01-30T09:31:45;11.50;99.90
36002;DHT22;22070;50.922;5.430;2024-01-30T09:34:11;11.40;99.90
36002;DHT22;22070;50.922;5.430;2024-01-30T09:36:36;11.50;99.90
36002;DHT22;22070;50.922;5.430;2024-01-30T09:39:02;11.50;99.90
36002;DHT22;22070;50.922;5.430;2024-01-30T09:41:30;11.50;99.90
36002;DHT22;22070;50.922;5.430;2024-01-30T09:43:57;11.50;99.90
36002;DHT22;22070;50.922;5.430;2024-01-30T09:46:26;11.60;99.90
36002;DHT22;22070;50.922;5.430;2024-01-30T09:48:55;11.70;99.90
36002;DHT22;22070;50.922;5.430;2024-01-30T09:51:23;11.80;99.90
36002;DHT22;22070;50.922;5.430;2024-01-30T09:53:50;11.80;99.90
36002;DHT22;22070;50.922;5.430;2024-01-30T09:56:16;11.80;99.90
36002;DHT22;22070;50.922;5.430;2024-01-30T09:58:42;11.90;99.90
36002;DHT22;22070;50.922;5.430;2024-01-30T10:01:08;11.90;99.90
36002;DHT22;22070;50.922;5.430;2024-01-30T10:03:33;11.90;99.90
36002;DHT22;22070;50.922;5.430;2024-01-30T10:05:59;12.00;99.90
36002;DHT22;22070;50.922;5.430;2024-01-30T10:08:26;12.00;99.90
36002;DHT22;22070;50.922;5.430;2024-01-30T10:10:52;12.00;99.90
36002;DHT22;22070;50.922;5.430;2024-01-30T10:13:18;12.10;99.90
36002;DHT22;22070;50.922;5.430;2024-01-30T10:15:44;12.10;99.90
36002;DHT22;22070;50.922;5.430;2024-01-30T10:18:10;12.20;99.90
36002;DHT22;22070;50.922;5.430;2024-01-30T10:20:37;12.20;99.90
36002;DHT22;22070;50.922;5.430;2024-01-30T10:23:02;12.20;99.90
36002;DHT22;22070;50.922;5.430;2024-01-30T10:25:30;12.20;99.90
36002;DHT22;22070;50.922;5.430;2024-01-30T10:27:56;12.30;99.90
36002;DHT22;22070;50.922;5.430;2024-01-30T10:30:23;12.30;99.90
36002;DHT22;22070;50.922;5.430;2024-01-30T10:32:49;12.40;99.90
36002;DHT22;22070;50.922;5.430;2024-01-30T10:35:15;12.40;99.90
36002;DHT22;22070;50.922;5.430;2024-01-30T10:37:43;12.50;99.90
36002;DHT22;22070;50.922;5.430;2024-01-30T10:40:13;12.50;99.90
36002;DHT22;22070;50.922;5.430;2024-01-30T10:42:43;12.50;99.90
36002;DHT22;22070;50.922;5.430;2024-01-30T10:45:14;12.50;99.90
36002;DHT22;22070;50.922;5.430;2024-01-30T10:47:49;12.50;99.90
36002;DHT22;22070;50.922;5.430;2024-01-30T10:50:15;12.40;99.90
36002;DHT22;22070;50.922;5.430;2024-01-30T10:52:42;12.40;99.90
36002;DHT22;22070;50.922;5.430;2024-01-30T10:55:10;12.40;99.90
36002;DHT22;22070;50.922;5.430;2024-01-30T10:57:36;12.50;99.90
36002;DHT22;22070;50.922;5.430;2024-01-30T11:00:10;12.40;99.90
36002;DHT22;22070;50.922;5.430;2024-01-30T11:02:41;12.40;99.90
36002;DHT22;22070;50.922;5.430;2024-01-30T11:05:08;12.40;99.90
36002;DHT22;22070;50.922;5.430;2024-01-30T11:07:34;12.40;99.90
36002;DHT22;22070;50.922;5.430;2024-01-30T11:10:03;12.40;99.90
36002;DHT22;22070;50.922;5.430;2024-01-30T11:12:33;12.30;99.90
36002;DHT22;22070;50.922;5.430;2024-01-30T11:20:10;12.20;99.90
36002;DHT22;22070;50.922;5.430;2024-01-30T11:22:36;12.10;99.90
36002;DHT22;22070;50.922;5.430;2024-01-30T11:25:01;12.10;99.90
36002;DHT22;22070;50.922;5.430;2024-01-30T11:27:30;12.00;99.90
36002;DHT22;22070;50.922;5.430;2024-01-30T11:30:01;12.10;99.90
36002;DHT22;22070;50.922;5.430;2024-01-30T11:32:28;12.10;99.90
36002;DHT22;22070;50.922;5.430;2024-01-30T11:34:54;12.10;99.90
36002;DHT22;22070;50.922;5.430;2024-01-30T11:37:21;12.10;99.90
36002;DHT22;22070;50.922;5.430;2024-01-30T11:39:50;12.10;99.90
36002;DHT22;22070;50.922;5.430;2024-01-30T11:42:17;12.10;99.90
36002;DHT22;22070;50.922;5.430;2024-01-30T11:44:47;12.10;99.90
36002;DHT22;22070;50.922;5.430;2024-01-30T11:47:13;12.20;99.90
36002;DHT22;22070;50.922;5.430;2024-01-30T11:49:39;12.20;99.90
36002;DHT22;22070;50.922;5.430;2024-01-30T11:52:05;12.20;99.90
36002;DHT22;22070;50.922;5.430;2024-01-30T11:54:31;12.20;99.90
36002;DHT22;22070;50.922;5.430;2024-01-30T11:56:57;12.20;99.90
36002;DHT22;22070;50.922;5.430;2024-01-30T11:59:22;12.20;99.90
36002;DHT22;22070;50.922;5.430;2024-01-30T12:01:48;12.10;99.90
36002;DHT22;22070;50.922;5.430;2024-01-30T12:04:15;12.10;99.90
36002;DHT22;22070;50.922;5.430;2024-01-30T12:06:40;12.10;99.90
36002;DHT22;22070;50.922;5.430;2024-01-30T12:09:06;12.10;99.90
36002;DHT22;22070;50.922;5.430;2024-01-30T12:11:48;12.10;99.90
36002;DHT22;22070;50.922;5.430;2024-01-30T12:14:16;12.10;99.90
36002;DHT22;22070;50.922;5.430;2024-01-30T12:16:42;12.00;99.90
36002;DHT22;22070;50.922;5.430;2024-01-30T12:19:08;12.00;99.90
36002;DHT22;22070;50.922;5.430;2024-01-30T12:21:34;12.00;99.90
36002;DHT22;22070;50.922;5.430;2024-01-30T12:24:00;12.00;99.90
36002;DHT22;22070;50.922;5.430;2024-01-30T12:26:26;12.00;99.90
36002;DHT22;22070;50.922;5.430;2024-01-30T12:28:56;12.00;99.90
36002;DHT22;22070;50.922;5.430;2024-01-30T12:31:31;12.10;99.90
36002;DHT22;22070;50.922;5.430;2024-01-30T12:33:59;12.10;99.90
36002;DHT22;22070;50.922;5.430;2024-01-30T12:36:25;12.00;99.90
36002;DHT22;22070;50.922;5.430;2024-01-30T12:38:51;12.10;99.90
36002;DHT22;22070;50.922;5.430;2024-01-30T12:41:17;12.10;99.90
36002;DHT22;22070;50.922;5.430;2024-01-30T12:43:43;12.20;99.90
36002;DHT22;22070;50.922;5.430;2024-01-30T12:46:10;12.10;99.90
36002;DHT22;22070;50.922;5.430;2024-01-30T12:48:35;12.10;99.90
36002;DHT22;22070;50.922;5.430;2024-01-30T12:51:01;12.10;99.90
36002;DHT22;22070;50.922;5.430;2024-01-30T12:53:27;12.10;99.90
36002;DHT22;22070;50.922;5.430;2024-01-30T12:55:53;12.00;99.90
36002;DHT22;22070;50.922;5.430;2024-01-30T12:58:20;11.90;99.90
36002;DHT22;22070;50.922;5.430;2024-01-30T13:00:45;11.80;99.90
36002;DHT22;22070;50.922;5.430;2024-01-30T13:03:12;11.80;99.90
36002;DHT22;22070;50.922;5.430;2024-01-30T13:05:38;11.70;99.90
36002;DHT22;22070;50.922;5.430;2024-01-30T13:08:04;11.70;99.90
36002;DHT22;22070;50.922;5.430;2024-01-30T13:10:29;11.70;99.90
36002;DHT22;22070;50.922;5.430;2024-01-30T13:12:55;11.60;99.90
36002;DHT22;22070;50.922;5.430;2024-01-30T13:15:20;11.60;99.90
36002;DHT22;22070;50.922;5.430;2024-01-30T13:17:48;11.60;99.90
36002;DHT22;22070;50.922;5.430;2024-01-30T13:20:14;11.60;99.90
36002;DHT22;22070;50.922;5.430;2024-01-30T13:22:46;11.60;99.90
36002;DHT22;22070;50.922;5.430;2024-01-30T13:25:12;11.60;99.90
36002;DHT22;22070;50.922;5.430;2024-01-30T13:27:38;11.60;99.90
36002;DHT22;22070;50.922;5.430;2024-01-30T13:30:04;11.60;99.90
36002;DHT22;22070;50.922;5.430;2024-01-30T13:32:30;11.70;99.90
36002;DHT22;22070;50.922;5.430;2024-01-30T13:34:55;11.70;99.90
36002;DHT22;22070;50.922;5.430;2024-01-30T13:37:22;11.70;99.90
36002;DHT22;22070;50.922;5.430;2024-01-30T13:39:47;11.60;99.90
36002;DHT22;22070;50.922;5.430;2024-01-30T13:42:13;11.60;99.90
36002;DHT22;22070;50.922;5.430;2024-01-30T13:44:39;11.60;99.90
36002;DHT22;22070;50.922;5.430;2024-01-30T13:47:04;11.60;99.90
36002;DHT22;22070;50.922;5.430;2024-01-30T13:49:30;11.60;99.90
36002;DHT22;22070;50.922;5.430;2024-01-30T13:51:56;11.60;99.90
36002;DHT22;22070;50.922;5.430;2024-01-30T13:54:21;11.50;99.90
36002;DHT22;22070;50.922;5.430;2024-01-30T13:56:47;11.50;99.90
36002;DHT22;22070;50.922;5.430;2024-01-30T13:59:13;11.50;99.90
36002;DHT22;22070;50.922;5.430;2024-01-30T14:01:38;11.50;99.90
36002;DHT22;22070;50.922;5.430;2024-01-30T14:04:04;11.50;99.90
36002;DHT22;22070;50.922;5.430;2024-01-30T14:06:29;11.60;99.90
36002;DHT22;22070;50.922;5.430;2024-01-30T14:08:55;11.50;99.90
36002;DHT22;22070;50.922;5.430;2024-01-30T14:11:21;11.60;99.90
36002;DHT22;22070;50.922;5.430;2024-01-30T14:13:46;11.60;99.90
36002;DHT22;22070;50.922;5.430;2024-01-30T14:16:12;11.50;99.90
36002;DHT22;22070;50.922;5.430;2024-01-30T14:18:38;11.50;99.90
36002;DHT22;22070;50.922;5.430;2024-01-30T14:21:03;11.50;99.90
36002;DHT22;22070;50.922;5.430;2024-01-30T14:23:29;11.40;99.90
36002;DHT22;22070;50.922;5.430;2024-01-30T14:25:55;11.40;99.90
36002;DHT22;22070;50.922;5.430;2024-01-30T14:28:20;11.40;99.90
36002;DHT22;22070;50.922;5.430;2024-01-30T14:30:46;11.40;99.90
36002;DHT22;22070;50.922;5.430;2024-01-30T14:33:12;11.40;99.90
36002;DHT22;22070;50.922;5.430;2024-01-30T14:35:38;11.30;99.90
36002;DHT22;22070;50.922;5.430;2024-01-30T14:38:04;11.30;99.90
36002;DHT22;22070;50.922;5.430;2024-01-30T14:40:33;11.20;99.90
36002;DHT22;22070;50.922;5.430;2024-01-30T14:42:58;11.30;99.90
36002;DHT22;22070;50.922;5.430;2024-01-30T14:45:24;11.30;99.90
36002;DHT22;22070;50.922;5.430;2024-01-30T14:47:50;11.20;99.90
36002;DHT22;22070;50.922;5.430;2024-01-30T14:50:15;11.30;99.90
36002;DHT22;22070;50.922;5.430;2024-01-30T14:52:42;11.30;99.90
36002;DHT22;22070;50.922;5.430;2024-01-30T14:55:08;11.40;99.90
36002;DHT22;22070;50.922;5.430;2024-01-30T14:57:35;11.40;99.90
36002;DHT22;22070;50.922;5.430;2024-01-30T15:00:00;11.40;99.90
36002;DHT22;22070;50.922;5.430;2024-01-30T15:02:26;11.50;99.90
36002;DHT22;22070;50.922;5.430;2024-01-30T15:04:52;11.50;99.90
36002;DHT22;22070;50.922;5.430;2024-01-30T15:07:18;11.40;99.90
36002;DHT22;22070;50.922;5.430;2024-01-30T15:09:44;11.30;99.90
36002;DHT22;22070;50.922;5.430;2024-01-30T15:12:09;11.20;99.90
36002;DHT22;22070;50.922;5.430;2024-01-30T15:14:35;11.30;99.90
36002;DHT22;22070;50.922;5.430;2024-01-30T15:17:01;11.30;99.90
36002;DHT22;22070;50.922;5.430;2024-01-30T15:19:27;11.20;99.90
36002;DHT22;22070;50.922;5.430;2024-01-30T15:21:52;11.30;99.90
36002;DHT22;22070;50.922;5.430;2024-01-30T15:24:18;11.30;99.90
36002;DHT22;22070;50.922;5.430;2024-01-30T15:26:45;11.20;99.90
36002;DHT22;22070;50.922;5.430;2024-01-30T15:29:11;11.10;99.90
36002;DHT22;22070;50.922;5.430;2024-01-30T15:31:37;11.10;99.90
36002;DHT22;22070;50.922;5.430;2024-01-30T15:34:02;11.10;99.90
36002;DHT22;22070;50.922;5.430;2024-01-30T15:36:29;11.10;99.90